createdAt,value
2019-03-23T00:01:23.009Z,62.47
2019-03-23T00:03:51.374Z,64.93
2019-03-23T00:06:30.265Z,65.17
2019-03-23T00:08:49.702Z,63.47
2019-03-23T00:11:18.082Z,62.77
2019-03-23T00:13:46.462Z,60.87
2019-03-23T00:16:14.819Z,63.97
2019-03-23T00:18:43.168Z,64.60
2019-03-23T00:21:11.643Z,65.57
2019-03-23T00:23:39.933Z,65.90
2019-03-23T00:26:09.253Z,65.63
2019-03-23T00:28:37.622Z,62.40
2019-03-23T00:31:05.967Z,62.10
2019-03-23T00:33:34.362Z,63.30
2019-03-23T00:36:02.993Z,62.33
2019-03-23T00:38:31.353Z,63.60
2019-03-23T00:40:59.693Z,63.47
2019-03-23T00:43:28.026Z,62.80
2019-03-23T00:45:56.417Z,65.10
2019-03-23T00:48:24.771Z,63.33
2019-03-23T00:50:53.153Z,62.17
2019-03-23T00:53:21.522Z,62.60
2019-03-23T00:55:49.871Z,63.17
2019-03-23T00:58:18.234Z,62.57
2019-03-23T01:00:46.591Z,65.07
2019-03-23T01:03:15.049Z,68.13
2019-03-23T01:05:43.414Z,68.97
2019-03-23T01:08:11.855Z,64.73
2019-03-23T01:10:40.555Z,61.20
2019-03-23T01:13:08.977Z,63.23
2019-03-23T01:15:37.360Z,61.00
2019-03-23T01:18:05.739Z,60.23
2019-03-23T01:20:34.163Z,61.03
2019-03-23T01:23:02.550Z,60.73
2019-03-23T01:25:30.990Z,58.77
2019-03-23T01:27:59.354Z,59.93
2019-03-23T01:30:27.863Z,58.57
2019-03-23T01:32:56.260Z,59.13
2019-03-23T01:35:25.128Z,58.73
2019-03-23T01:38:26.405Z,57.53
2019-03-23T01:40:54.758Z,57.70
2019-03-23T01:43:41.533Z,60.73
2019-03-23T01:46:09.901Z,55.80
2019-03-23T01:48:38.254Z,61.20
2019-03-23T01:51:06.655Z,56.83
2019-03-23T01:53:35.001Z,56.37
2019-03-23T01:56:03.410Z,57.77
2019-03-23T01:58:31.826Z,56.00
2019-03-23T02:01:01.032Z,50.97
2019-03-23T02:03:29.377Z,50.47
2019-03-23T02:05:57.698Z,49.07
2019-03-23T02:08:26.059Z,49.77
2019-03-23T02:10:54.396Z,50.23
2019-03-23T02:13:22.780Z,47.70
2019-03-23T02:15:51.153Z,49.70
2019-03-23T02:18:19.502Z,49.20
2019-03-23T02:20:47.910Z,47.73
2019-03-23T02:23:16.260Z,48.37
2019-03-23T02:25:44.652Z,47.60
2019-03-23T02:28:13.001Z,47.53
2019-03-23T02:30:41.421Z,46.03
2019-03-23T02:33:09.765Z,46.53
2019-03-23T02:35:38.214Z,45.70
2019-03-23T02:38:06.592Z,44.13
2019-03-23T02:40:35.121Z,44.37
2019-03-23T02:43:03.537Z,44.23
2019-03-23T02:45:32.009Z,45.03
2019-03-23T02:48:00.306Z,44.37
2019-03-23T02:50:28.735Z,43.63
2019-03-23T02:52:57.068Z,41.40
2019-03-23T02:55:26.480Z,42.47
2019-03-23T02:57:55.133Z,42.10
2019-03-23T03:00:23.473Z,41.50
2019-03-23T03:02:51.807Z,43.40
2019-03-23T03:05:20.195Z,40.57
2019-03-23T03:07:48.539Z,42.70
2019-03-23T03:10:23.140Z,43.30
2019-03-23T03:12:51.366Z,41.40
2019-03-23T03:15:20.134Z,44.23
2019-03-23T03:17:48.322Z,45.73
2019-03-23T03:20:16.547Z,44.13
2019-03-23T03:22:44.772Z,47.00
2019-03-23T03:25:12.992Z,46.33
2019-03-23T03:27:41.370Z,45.93
2019-03-23T03:30:10.040Z,45.93
2019-03-23T03:32:38.304Z,45.57
2019-03-23T03:35:07.086Z,48.17
2019-03-23T03:37:35.253Z,46.90
2019-03-23T03:40:03.422Z,48.03
2019-03-23T03:42:31.632Z,47.60
2019-03-23T03:45:00.229Z,48.60
2019-03-23T03:47:28.686Z,49.53
2019-03-23T03:49:57.030Z,47.50
2019-03-23T03:52:25.329Z,48.23
2019-03-23T03:54:53.607Z,49.07
2019-03-23T03:57:21.834Z,49.20
2019-03-23T03:59:50.027Z,51.40
2019-03-23T04:02:18.263Z,51.47
2019-03-23T04:04:46.463Z,53.77
2019-03-23T04:07:14.612Z,53.87
2019-03-23T04:09:42.848Z,55.07
2019-03-23T04:12:11.132Z,58.80
2019-03-23T04:14:39.380Z,56.90
2019-03-23T04:17:07.562Z,54.63
2019-03-23T04:19:35.713Z,58.40
2019-03-23T04:22:03.977Z,55.80
2019-03-23T04:24:32.184Z,56.93
2019-03-23T04:27:03.460Z,56.67
2019-03-23T04:29:31.660Z,58.33
2019-03-23T04:31:59.827Z,57.07
2019-03-23T04:34:28.052Z,58.93
2019-03-23T04:36:56.371Z,60.37
2019-03-23T04:39:24.505Z,61.13
2019-03-23T04:41:52.713Z,60.97
2019-03-23T04:44:20.947Z,59.57
2019-03-23T04:46:49.080Z,58.77
2019-03-23T04:49:17.248Z,58.17
2019-03-23T04:51:45.478Z,57.63
2019-03-23T04:54:13.664Z,57.87
2019-03-23T04:56:41.817Z,58.73
2019-03-23T04:59:10.036Z,56.83
2019-03-23T05:01:38.182Z,61.10
2019-03-23T05:04:06.446Z,62.63
2019-03-23T05:06:34.818Z,59.93
2019-03-23T05:09:03.486Z,61.73
2019-03-23T05:11:31.823Z,61.47
2019-03-23T05:14:00.180Z,62.03
2019-03-23T05:16:28.518Z,62.57
2019-03-23T05:18:56.803Z,62.83
2019-03-23T05:21:25.194Z,63.27
2019-03-23T05:23:53.535Z,61.80
2019-03-23T05:26:22.361Z,59.37
2019-03-23T05:28:50.713Z,59.20
2019-03-23T05:31:19.067Z,56.40
2019-03-23T05:33:47.473Z,56.17
2019-03-23T05:36:15.799Z,60.80
2019-03-23T05:38:44.936Z,55.63
2019-03-23T05:41:13.398Z,55.00
2019-03-23T05:43:41.753Z,54.87
2019-03-23T05:46:10.110Z,54.50
2019-03-23T05:48:38.459Z,54.53
2019-03-23T05:51:06.987Z,55.43
2019-03-23T05:53:35.316Z,55.33
2019-03-23T05:56:03.650Z,59.40
2019-03-23T05:58:32.010Z,57.90
2019-03-23T06:01:00.340Z,57.90
2019-03-23T06:03:28.693Z,59.50
2019-03-23T06:05:57.030Z,56.67
2019-03-23T06:08:25.446Z,57.57
2019-03-23T06:10:53.789Z,59.73
2019-03-23T06:13:22.128Z,59.53
2019-03-23T06:15:50.590Z,54.20
2019-03-23T06:18:18.886Z,54.63
2019-03-23T06:20:47.303Z,55.37
2019-03-23T06:23:15.777Z,55.93
2019-03-23T06:25:44.138Z,55.67
2019-03-23T06:28:12.433Z,54.27
2019-03-23T06:30:40.858Z,55.03
2019-03-23T06:33:09.273Z,54.13
2019-03-23T06:35:37.638Z,54.47
2019-03-23T06:38:06.336Z,55.20
2019-03-23T06:40:49.219Z,56.23
2019-03-23T06:43:24.735Z,53.17
2019-03-23T06:45:50.351Z,53.93
2019-03-23T06:48:27.985Z,53.07
2019-03-23T06:50:56.307Z,51.83
2019-03-23T06:53:55.623Z,49.70
2019-03-23T06:56:29.391Z,51.33
2019-03-23T06:59:13.657Z,48.93
2019-03-23T07:01:44.919Z,51.57
2019-03-23T07:04:26.640Z,48.87
2019-03-23T07:10:02.662Z,48.80
2019-03-23T07:12:41.008Z,49.83
2019-03-23T07:15:22.885Z,48.47
2019-03-23T07:18:01.139Z,49.10
2019-03-23T07:20:37.528Z,48.33
2019-03-23T07:23:06.248Z,47.53
2019-03-23T07:25:34.652Z,48.77
2019-03-23T07:30:45.784Z,49.93
2019-03-23T07:33:17.217Z,50.27
2019-03-23T07:35:46.619Z,54.87
2019-03-23T07:38:14.982Z,53.00
2019-03-23T07:40:43.288Z,53.10
2019-03-23T07:43:11.612Z,52.70
2019-03-23T07:48:49.202Z,51.23
2019-03-23T07:51:17.510Z,50.90
2019-03-23T07:53:45.858Z,52.17
2019-03-23T07:56:14.373Z,52.07
2019-03-23T07:58:43.098Z,52.10
2019-03-23T08:01:14.295Z,53.27
2019-03-23T08:03:43.133Z,51.30
2019-03-23T08:06:12.056Z,50.07
2019-03-23T08:08:40.761Z,51.47
2019-03-23T08:11:09.199Z,50.90
2019-03-23T08:13:37.561Z,52.30
2019-03-23T08:19:33.170Z,50.50
2019-03-23T08:22:01.499Z,47.80
2019-03-23T08:24:29.888Z,48.77
2019-03-23T08:26:58.179Z,47.57
2019-03-23T08:29:26.543Z,45.83
2019-03-23T08:31:54.891Z,47.63
2019-03-23T08:34:23.230Z,46.87
2019-03-23T08:36:51.598Z,50.80
2019-03-23T08:39:19.912Z,50.10
2019-03-23T08:41:48.250Z,51.03
2019-03-23T08:44:16.550Z,52.97
2019-03-23T08:46:46.360Z,51.60
2019-03-23T08:49:15.510Z,50.87
2019-03-23T08:51:43.834Z,51.43
2019-03-23T08:54:12.171Z,51.63
2019-03-23T08:56:40.527Z,50.13
2019-03-23T08:59:09.115Z,49.33
2019-03-23T09:01:37.495Z,47.03
2019-03-23T09:04:05.899Z,49.63
2019-03-23T09:06:34.306Z,50.27
2019-03-23T09:09:02.673Z,48.63
2019-03-23T09:11:30.972Z,51.00
2019-03-23T09:13:59.360Z,49.73
2019-03-23T09:16:27.772Z,48.53
2019-03-23T09:18:56.193Z,49.57
2019-03-23T09:21:24.524Z,49.67
2019-03-23T09:23:52.877Z,48.40
2019-03-23T09:26:21.295Z,47.97
2019-03-23T09:28:49.731Z,48.63
2019-03-23T09:31:19.319Z,48.03
2019-03-23T09:33:47.716Z,47.57
2019-03-23T09:36:16.168Z,48.60
2019-03-23T09:38:44.935Z,50.43
2019-03-23T09:41:13.324Z,50.77
2019-03-23T09:43:42.391Z,50.37
2019-03-23T09:46:12.479Z,49.53
2019-03-23T09:48:40.873Z,49.70
2019-03-23T09:51:09.407Z,51.40
2019-03-23T09:53:37.780Z,49.10
2019-03-23T09:56:07.909Z,48.30
2019-03-23T09:58:36.400Z,50.90
2019-03-23T10:01:05.024Z,51.07
2019-03-23T10:03:33.352Z,52.33
2019-03-23T10:06:01.829Z,50.57
2019-03-23T10:08:38.150Z,50.57
2019-03-23T10:11:06.459Z,50.10
2019-03-23T10:13:34.843Z,49.63
2019-03-23T10:16:03.233Z,50.47
2019-03-23T10:18:31.594Z,50.83
2019-03-23T10:20:59.955Z,49.07
2019-03-23T10:23:28.294Z,50.77
2019-03-23T10:25:56.692Z,49.60
2019-03-23T10:28:25.047Z,49.93
2019-03-23T10:30:53.401Z,51.33
2019-03-23T10:33:26.136Z,52.00
2019-03-23T10:35:55.019Z,52.73
2019-03-23T10:38:23.695Z,52.60
2019-03-23T10:40:52.143Z,52.27
2019-03-23T10:43:20.475Z,52.13
2019-03-23T10:45:48.860Z,51.67
2019-03-23T10:48:17.216Z,52.47
2019-03-23T10:50:45.553Z,53.07
2019-03-23T10:53:22.787Z,53.43
2019-03-23T10:55:43.970Z,55.50
2019-03-23T10:58:27.439Z,53.63
2019-03-23T11:00:55.855Z,51.30
2019-03-23T11:03:24.192Z,54.20
2019-03-23T11:05:52.570Z,52.93
2019-03-23T11:08:20.917Z,50.63
2019-03-23T11:10:49.284Z,52.27
2019-03-23T11:13:17.682Z,52.60
2019-03-23T11:15:46.038Z,52.60
2019-03-23T11:18:14.365Z,49.90
2019-03-23T11:20:42.717Z,53.47
2019-03-23T11:23:11.226Z,50.43
2019-03-23T11:25:40.662Z,49.93
2019-03-23T11:28:09.092Z,49.57
2019-03-23T11:30:37.442Z,50.90
2019-03-23T11:33:05.839Z,51.83
2019-03-23T11:35:34.236Z,51.50
2019-03-23T11:38:02.753Z,52.50
2019-03-23T11:40:31.163Z,52.07
2019-03-23T11:42:59.573Z,52.67
2019-03-23T11:45:30.398Z,49.30
2019-03-23T11:47:58.749Z,51.83
2019-03-23T11:50:27.436Z,51.23
2019-03-23T11:52:55.863Z,53.17
2019-03-23T11:55:24.262Z,52.67
2019-03-23T11:57:52.632Z,52.67
2019-03-23T12:00:20.981Z,48.57
2019-03-23T12:02:49.397Z,48.50
2019-03-23T12:05:17.779Z,47.80
2019-03-23T12:07:46.158Z,48.03
2019-03-23T12:10:14.574Z,48.20
2019-03-23T12:12:42.918Z,48.30
2019-03-23T12:15:11.879Z,47.77
2019-03-23T12:17:40.335Z,48.97
2019-03-23T12:20:08.999Z,48.33
2019-03-23T12:22:38.422Z,46.67
2019-03-23T12:25:06.774Z,48.27
2019-03-23T12:27:35.154Z,49.97
2019-03-23T12:30:07.575Z,51.10
2019-03-23T12:32:38.151Z,51.00
2019-03-23T12:35:09.657Z,48.37
2019-03-23T12:37:38.309Z,49.50
2019-03-23T12:40:06.939Z,52.50
2019-03-23T12:42:50.626Z,49.83
2019-03-23T12:45:21.244Z,47.57
2019-03-23T12:47:49.622Z,47.57
2019-03-23T12:50:17.955Z,46.87
2019-03-23T12:52:46.267Z,44.67
2019-03-23T12:55:14.760Z,46.77
2019-03-23T12:57:43.112Z,41.37
2019-03-23T13:00:11.986Z,40.67
2019-03-23T13:02:40.348Z,40.77
2019-03-23T13:05:08.846Z,38.77
2019-03-23T13:07:40.973Z,38.93
2019-03-23T13:10:11.664Z,37.27
2019-03-23T13:12:41.994Z,37.33
2019-03-23T13:15:10.698Z,34.67
2019-03-23T13:17:39.089Z,37.10
2019-03-23T13:20:15.644Z,32.73
2019-03-23T13:22:44.007Z,30.50
2019-03-23T13:25:12.394Z,29.33
2019-03-23T13:30:37.283Z,29.43
2019-03-23T13:33:05.705Z,26.47
2019-03-23T13:35:34.094Z,25.43
2019-03-23T13:38:02.556Z,25.47
2019-03-23T13:40:30.981Z,23.20
2019-03-23T13:42:59.404Z,21.87
2019-03-23T13:45:28.461Z,23.20
2019-03-23T13:47:56.792Z,16.27
2019-03-23T13:50:28.407Z,15.30
2019-03-23T13:52:56.769Z,15.53
2019-03-23T13:55:25.825Z,13.67
2019-03-23T13:57:54.230Z,10.17
2019-03-23T14:00:22.592Z,8.60
2019-03-23T14:02:50.986Z,7.80
2019-03-23T14:05:19.372Z,6.83
2019-03-23T14:07:47.765Z,6.40
2019-03-23T14:10:16.131Z,5.23
2019-03-23T14:12:44.538Z,5.07
2019-03-23T14:15:12.986Z,3.90
2019-03-23T14:17:41.335Z,4.87
2019-03-23T14:20:10.055Z,3.93
2019-03-23T14:22:38.532Z,4.20
2019-03-23T14:25:07.947Z,3.77
2019-03-23T14:27:36.273Z,3.80
2019-03-23T14:30:05.385Z,3.17
2019-03-23T14:32:33.800Z,3.13
2019-03-23T14:35:02.210Z,3.97
2019-03-23T14:37:30.639Z,3.27
2019-03-23T14:39:59.001Z,2.93
2019-03-23T14:42:27.425Z,5.03
2019-03-23T14:44:55.781Z,2.97
2019-03-23T14:47:24.158Z,3.47
2019-03-23T14:49:53.510Z,2.40
2019-03-23T14:52:21.908Z,2.70
2019-03-23T14:54:50.287Z,2.90
2019-03-23T14:57:18.734Z,3.40
2019-03-23T14:59:47.084Z,2.80
2019-03-23T15:02:15.479Z,2.77
2019-03-23T15:04:43.863Z,3.20
2019-03-23T15:07:12.376Z,3.20
2019-03-23T15:09:41.882Z,3.30
2019-03-23T15:12:15.059Z,3.27
2019-03-23T15:14:40.260Z,3.50
2019-03-23T15:17:08.650Z,4.70
2019-03-23T15:19:37.300Z,3.27
2019-03-23T15:22:05.683Z,3.37
2019-03-23T15:24:34.074Z,2.60
2019-03-23T15:27:02.446Z,2.67
2019-03-23T15:29:30.807Z,2.80
2019-03-23T15:32:00.290Z,4.47
2019-03-23T15:34:28.710Z,3.70
2019-03-23T15:36:57.063Z,4.73
2019-03-23T15:39:26.433Z,4.27
2019-03-23T15:41:54.815Z,3.77
2019-03-23T15:44:23.191Z,3.47
2019-03-23T15:46:51.584Z,5.30
2019-03-23T15:49:19.969Z,4.67
2019-03-23T15:51:48.466Z,3.40
2019-03-23T15:54:16.852Z,4.63
2019-03-23T15:56:45.455Z,3.00
2019-03-23T15:59:13.813Z,3.50
2019-03-23T16:01:42.176Z,3.57
2019-03-23T16:04:10.600Z,4.03
2019-03-23T16:06:39.015Z,3.90
2019-03-23T16:09:07.744Z,3.80
2019-03-23T16:11:36.149Z,3.80
2019-03-23T16:14:04.553Z,5.53
2019-03-23T16:16:33.010Z,5.23
2019-03-23T16:19:01.448Z,4.83
2019-03-23T16:21:32.754Z,4.60
2019-03-23T16:24:01.212Z,4.93
2019-03-23T16:26:29.987Z,4.40
2019-03-23T16:28:58.818Z,4.10
2019-03-23T16:31:27.237Z,4.13
2019-03-23T16:33:58.604Z,4.27
2019-03-23T16:36:26.975Z,4.47
2019-03-23T16:38:56.429Z,5.67
2019-03-23T16:41:24.887Z,4.33
2019-03-23T16:44:02.475Z,3.60
2019-03-23T16:46:35.013Z,5.13
2019-03-23T16:49:13.948Z,4.80
2019-03-23T16:51:42.392Z,4.43
2019-03-23T16:54:10.729Z,6.13
2019-03-23T16:56:39.146Z,4.70
2019-03-23T16:59:07.502Z,4.47
2019-03-23T17:01:35.872Z,4.17
2019-03-23T17:04:04.389Z,5.03
2019-03-23T17:06:32.874Z,4.40
2019-03-23T17:09:01.238Z,5.70
2019-03-23T17:11:29.610Z,5.70
2019-03-23T17:13:58.239Z,4.63
2019-03-23T17:16:26.544Z,5.80
2019-03-23T17:18:57.459Z,6.10
2019-03-23T17:21:27.512Z,5.97
2019-03-23T17:23:58.080Z,5.40
2019-03-23T17:26:29.668Z,4.77
2019-03-23T17:29:01.012Z,6.50
2019-03-23T17:31:29.396Z,6.90
2019-03-23T17:37:07.540Z,6.97
2019-03-23T17:39:35.854Z,8.23
2019-03-23T17:42:04.316Z,8.63
2019-03-23T17:44:32.719Z,6.67
2019-03-23T17:50:21.727Z,7.23
2019-03-23T17:52:50.121Z,8.03
2019-03-23T17:55:18.622Z,8.83
2019-03-23T17:57:46.978Z,7.20
2019-03-23T18:00:18.100Z,7.27
2019-03-23T18:02:46.780Z,6.70
2019-03-23T18:05:15.168Z,7.90
2019-03-23T18:07:46.415Z,7.13
2019-03-23T18:10:14.934Z,6.00
2019-03-23T18:12:43.308Z,11.93
2019-03-23T18:15:13.323Z,9.47
2019-03-23T18:17:41.717Z,6.93
2019-03-23T18:20:10.394Z,7.50
2019-03-23T18:22:38.834Z,7.87
2019-03-23T18:25:07.880Z,10.80
2019-03-23T18:27:39.460Z,8.53
2019-03-23T18:30:14.281Z,7.57
2019-03-23T18:32:45.117Z,7.40
2019-03-23T18:35:19.260Z,6.87
2019-03-23T18:41:00.632Z,9.50
2019-03-23T18:46:38.214Z,8.30
2019-03-23T18:49:06.567Z,10.10
2019-03-23T18:51:35.008Z,9.37
2019-03-23T18:54:03.355Z,10.60
2019-03-23T18:56:31.740Z,9.30
2019-03-23T18:59:00.093Z,9.43
2019-03-23T19:01:28.471Z,8.00
2019-03-23T19:03:57.921Z,6.93
2019-03-23T19:06:26.277Z,8.03
2019-03-23T19:08:54.681Z,8.40
2019-03-23T19:11:23.066Z,9.03
2019-03-23T19:13:51.439Z,6.87
2019-03-23T19:16:19.849Z,6.70
2019-03-23T19:18:49.302Z,8.07
2019-03-23T19:21:18.256Z,8.23
2019-03-23T19:23:46.676Z,6.57
2019-03-23T19:26:15.089Z,7.70
2019-03-23T19:28:43.590Z,7.40
2019-03-23T19:31:11.988Z,8.77
2019-03-23T19:33:40.362Z,7.70
2019-03-23T19:36:08.770Z,6.93
2019-03-23T19:38:37.132Z,10.57
2019-03-23T19:41:05.667Z,10.03
2019-03-23T19:43:34.116Z,10.10
2019-03-23T19:46:02.502Z,11.77
2019-03-23T19:48:30.842Z,9.87
2019-03-23T19:50:59.350Z,10.97
2019-03-23T19:53:27.686Z,10.10
2019-03-23T19:55:56.465Z,8.80
2019-03-23T19:58:24.769Z,7.80
2019-03-23T20:00:53.103Z,7.23
2019-03-23T20:03:21.452Z,6.83
2019-03-23T20:05:49.807Z,8.80
2019-03-23T20:08:18.219Z,7.47
2019-03-23T20:10:46.665Z,8.43
2019-03-23T20:13:15.053Z,8.87
2019-03-23T20:15:43.776Z,8.43
2019-03-23T20:18:12.175Z,7.60
2019-03-23T20:23:51.303Z,7.87
2019-03-23T20:26:19.961Z,9.40
2019-03-23T20:28:48.242Z,7.13
2019-03-23T20:31:16.609Z,6.53
2019-03-23T20:33:44.926Z,7.07
2019-03-23T20:36:13.210Z,7.60
2019-03-23T20:38:41.570Z,6.57
2019-03-23T20:41:09.889Z,8.50
2019-03-23T20:43:38.625Z,7.17
2019-03-23T20:46:07.219Z,7.37
2019-03-23T20:48:36.527Z,7.23
2019-03-23T20:51:05.032Z,7.40
2019-03-23T20:53:33.438Z,7.00
2019-03-23T20:56:02.086Z,7.10
2019-03-23T20:58:30.569Z,7.40
2019-03-23T21:01:00.512Z,6.23
2019-03-23T21:03:29.027Z,6.37
2019-03-23T21:05:57.650Z,7.80
2019-03-23T21:08:26.156Z,7.90
2019-03-23T21:10:54.537Z,6.87
2019-03-23T21:13:22.870Z,6.60
2019-03-23T21:15:51.318Z,7.47
2019-03-23T21:18:19.968Z,9.50
2019-03-23T21:20:48.355Z,6.57
2019-03-23T21:23:16.760Z,6.60
2019-03-23T21:25:45.130Z,6.87
2019-03-23T21:28:14.110Z,7.70
2019-03-23T21:30:42.999Z,7.47
2019-03-23T21:33:11.274Z,7.30
2019-03-23T21:35:39.650Z,7.37
2019-03-23T21:38:08.008Z,8.53
2019-03-23T21:40:36.350Z,8.33
2019-03-23T21:43:04.729Z,7.37
2019-03-23T21:45:33.190Z,8.43
2019-03-23T21:48:01.621Z,8.27
2019-03-23T21:50:29.998Z,8.83
2019-03-23T21:52:58.423Z,9.23
2019-03-23T21:55:27.005Z,7.47
2019-03-23T21:57:58.418Z,7.40
2019-03-23T22:00:30.613Z,6.07
2019-03-23T22:02:59.099Z,6.80
2019-03-23T22:05:27.423Z,6.57
2019-03-23T22:07:59.693Z,7.00
2019-03-23T22:10:28.055Z,6.10
2019-03-23T22:12:56.519Z,6.87
2019-03-23T22:15:24.893Z,6.67
2019-03-23T22:17:53.282Z,7.03
2019-03-23T22:20:21.751Z,7.27
2019-03-23T22:22:50.650Z,6.90
2019-03-23T22:25:18.986Z,6.53
2019-03-23T22:27:47.325Z,6.60
2019-03-23T22:30:15.973Z,6.83
2019-03-23T22:32:44.515Z,6.93
2019-03-23T22:35:13.187Z,7.77
2019-03-23T22:37:41.599Z,6.00
2019-03-23T22:40:10.011Z,6.07
2019-03-23T22:43:11.111Z,6.73
2019-03-23T22:45:39.436Z,5.90
2019-03-23T22:51:17.030Z,6.77
2019-03-23T22:53:45.367Z,6.70
2019-03-23T22:56:13.845Z,6.73
2019-03-23T22:58:42.177Z,6.47
2019-03-23T23:01:10.727Z,6.57
2019-03-23T23:03:39.094Z,6.80
2019-03-23T23:06:07.491Z,6.07
2019-03-23T23:08:35.852Z,6.47
2019-03-23T23:11:04.595Z,6.20
2019-03-23T23:13:32.949Z,6.73
2019-03-23T23:16:01.333Z,7.43
2019-03-23T23:18:29.671Z,6.63
2019-03-23T23:20:57.987Z,7.00
2019-03-23T23:23:26.367Z,7.63
2019-03-23T23:25:54.721Z,6.93
2019-03-23T23:28:23.089Z,7.20
2019-03-23T23:30:51.409Z,7.87
2019-03-23T23:33:19.748Z,7.23
2019-03-23T23:35:48.201Z,8.23
2019-03-23T23:38:16.545Z,7.83
2019-03-23T23:40:44.916Z,7.30
2019-03-23T23:43:13.343Z,8.30
2019-03-23T23:45:41.666Z,8.77
2019-03-23T23:48:10.061Z,8.10
2019-03-23T23:50:38.381Z,7.87
2019-03-23T23:53:06.746Z,7.23
2019-03-23T23:55:35.101Z,6.33
2019-03-23T23:58:03.432Z,6.90
